CheckWX is a tool to help pilots better visualize weather data.  It is not intended as a substitute for an official pre-flight weather briefing.

04:53:16 UTC

HESN TAF
Aswan International Airport
Aswan, Egypt
TAF HESN 222300Z 2300/2406 35008KT CAVOK

Mar-23@
00:00 UTC

Mar-23 @ 00:00 UTC

Mar-24@
06:00 UTC

Mar-24 @ 06:00 UTC

TAF HESN 222300Z 2300/2406 35008KT CAVOK
Wind
  • 350° at 8 KTS
Conditions
No significant weather
Cloud Levels
  • No significant clouds